createdAt,value
2018-09-04T00:01:02.354Z,48.60
2018-09-04T00:03:35.241Z,49.33
2018-09-04T00:06:08.288Z,48.03
2018-09-04T00:08:41.721Z,48.37
2018-09-04T00:11:14.710Z,48.33
2018-09-04T00:13:43.598Z,55.43
2018-09-04T00:16:12.492Z,49.47
2018-09-04T00:18:41.663Z,50.17
2018-09-04T00:21:10.558Z,48.20
2018-09-04T00:23:39.689Z,50.87
2018-09-04T00:26:08.584Z,50.67
2018-09-04T00:28:39.554Z,49.23
2018-09-04T00:31:08.579Z,50.53
2018-09-04T00:33:39.478Z,48.03
2018-09-04T00:36:09.210Z,48.77
2018-09-04T00:38:38.301Z,49.50
2018-09-04T00:41:25.840Z,46.27
2018-09-04T00:44:02.821Z,52.07
2018-09-04T00:46:31.737Z,52.80
2018-09-04T00:49:00.641Z,50.63
2018-09-04T00:51:31.553Z,47.30
2018-09-04T00:57:06.712Z,45.90
2018-09-04T00:59:35.591Z,49.40
2018-09-04T01:02:04.479Z,48.63
2018-09-04T01:04:41.577Z,53.87
2018-09-04T01:07:12.078Z,52.43
2018-09-04T01:09:41.147Z,50.53
2018-09-04T01:12:10.284Z,51.97
2018-09-04T01:14:41.515Z,52.30
2018-09-04T01:17:10.608Z,52.63
2018-09-04T01:19:39.745Z,56.57
2018-09-04T01:22:08.650Z,58.27
2018-09-04T01:24:37.596Z,52.43
2018-09-04T01:27:06.501Z,59.73
2018-09-04T01:29:35.457Z,53.93
2018-09-04T01:32:04.367Z,56.77
2018-09-04T01:34:33.271Z,55.77
2018-09-04T01:37:02.172Z,55.43
2018-09-04T01:39:32.103Z,55.77
2018-09-04T01:42:01.150Z,55.90
2018-09-04T01:44:30.060Z,58.37
2018-09-04T01:46:58.959Z,54.57
2018-09-04T01:49:27.878Z,57.83
2018-09-04T01:51:56.942Z,55.93
2018-09-04T01:54:25.816Z,52.53
2018-09-04T01:56:54.720Z,56.50
2018-09-04T01:59:38.337Z,53.93
2018-09-04T02:02:07.232Z,57.83
2018-09-04T02:04:36.123Z,55.73
2018-09-04T02:07:09.961Z,52.07
2018-09-04T02:09:39.865Z,49.97
2018-09-04T02:12:10.809Z,53.13
2018-09-04T02:14:39.824Z,51.07
2018-09-04T02:17:08.757Z,46.20
2018-09-04T02:19:37.697Z,49.67
2018-09-04T02:22:06.644Z,52.97
2018-09-04T02:24:35.525Z,50.67
2018-09-04T02:27:21.447Z,53.73
2018-09-04T02:30:02.596Z,51.97
2018-09-04T02:32:31.508Z,50.30
2018-09-04T02:35:00.485Z,53.00
2018-09-04T02:37:29.539Z,57.33
2018-09-04T02:40:09.677Z,49.33
2018-09-04T02:42:44.210Z,53.27
2018-09-04T02:45:22.914Z,50.93
2018-09-04T02:47:51.805Z,52.57
2018-09-04T02:50:21.207Z,53.20
2018-09-04T02:52:57.068Z,54.70
2018-09-04T02:55:36.710Z,52.80
2018-09-04T02:58:05.824Z,52.13
2018-09-04T03:00:35.791Z,55.27
2018-09-04T03:03:08.613Z,60.90
2018-09-04T03:05:37.787Z,55.20
2018-09-04T03:08:06.839Z,55.53
2018-09-04T03:10:35.735Z,54.70
2018-09-04T03:13:08.582Z,53.93
2018-09-04T03:18:37.198Z,53.40
2018-09-04T03:21:14.018Z,58.57
2018-09-04T03:23:42.913Z,59.37
2018-09-04T03:26:11.777Z,51.67
2018-09-04T03:28:48.117Z,55.57
2018-09-04T03:31:17.195Z,52.80
2018-09-04T03:33:46.113Z,55.17
2018-09-04T03:36:15.006Z,60.50
2018-09-04T03:38:43.917Z,53.37
2018-09-04T03:41:15.122Z,58.07
2018-09-04T03:43:44.058Z,62.63
2018-09-04T03:46:20.940Z,62.37
2018-09-04T03:48:49.898Z,59.60
2018-09-04T03:51:38.932Z,58.77
2018-09-04T03:54:08.944Z,59.00
2018-09-04T03:56:43.277Z,56.03
2018-09-04T03:59:16.276Z,55.00
2018-09-04T04:01:46.822Z,54.67
2018-09-04T04:04:15.789Z,53.30
2018-09-04T04:06:44.678Z,58.63
2018-09-04T04:09:13.704Z,56.13
2018-09-04T04:11:42.604Z,58.93
2018-09-04T04:14:12.568Z,58.60
2018-09-04T04:16:47.124Z,67.50
2018-09-04T04:19:22.865Z,66.30
2018-09-04T04:21:52.911Z,68.80
2018-09-04T04:24:35.026Z,65.60
2018-09-04T04:27:11.443Z,63.77
2018-09-04T04:29:40.367Z,58.87
2018-09-04T04:32:12.841Z,63.40
2018-09-04T04:34:45.521Z,61.33
2018-09-04T04:37:14.425Z,58.40
2018-09-04T04:39:59.986Z,67.30
2018-09-04T04:42:29.014Z,60.90
2018-09-04T04:44:57.931Z,63.40
2018-09-04T04:47:32.294Z,67.73
2018-09-04T04:50:01.303Z,60.83
2018-09-04T04:52:30.229Z,66.50
2018-09-04T04:54:59.110Z,63.60
2018-09-04T04:57:28.002Z,60.00
2018-09-04T05:00:02.574Z,63.13
2018-09-04T05:02:31.822Z,67.90
2018-09-04T05:05:02.817Z,65.23
2018-09-04T05:07:36.875Z,72.33
2018-09-04T05:10:19.286Z,69.53
2018-09-04T05:12:48.491Z,65.83
2018-09-04T05:15:17.483Z,68.30
2018-09-04T05:17:51.992Z,68.10
2018-09-04T05:20:24.211Z,65.30
2018-09-04T05:23:00.733Z,64.57
2018-09-04T05:25:36.248Z,69.57
2018-09-04T05:28:05.277Z,68.63
2018-09-04T05:30:57.194Z,75.40
2018-09-04T05:33:32.185Z,71.80
2018-09-04T05:36:03.137Z,73.13
2018-09-04T05:38:36.685Z,77.93
2018-09-04T05:41:12.215Z,70.83
2018-09-04T05:43:59.624Z,82.23
2018-09-04T05:46:39.015Z,74.80
2018-09-04T05:49:08.533Z,76.07
2018-09-04T05:51:41.593Z,82.30
2018-09-04T05:54:10.590Z,76.60
2018-09-04T05:56:53.107Z,76.33
2018-09-04T05:59:22.042Z,76.37
2018-09-04T06:01:52.029Z,72.73
2018-09-04T06:04:28.189Z,76.87
2018-09-04T06:06:58.104Z,77.93
2018-09-04T06:09:35.405Z,82.80
2018-09-04T06:12:05.413Z,79.57
2018-09-04T06:14:46.983Z,80.40
2018-09-04T06:17:17.907Z,84.57
2018-09-04T06:20:03.346Z,80.63
2018-09-04T06:22:39.381Z,83.17
2018-09-04T06:25:10.338Z,82.87
2018-09-04T06:27:46.808Z,82.90
2018-09-04T06:30:40.065Z,79.53
2018-09-04T06:33:17.145Z,82.57
2018-09-04T06:35:46.031Z,84.20
2018-09-04T06:38:20.641Z,82.60
2018-09-04T06:40:59.357Z,84.50
2018-09-04T06:43:34.976Z,77.93
2018-09-04T06:46:08.104Z,81.27
2018-09-04T06:48:37.380Z,87.37
2018-09-04T06:51:09.724Z,77.07
2018-09-04T06:53:44.408Z,78.07
2018-09-04T06:56:21.594Z,89.27
2018-09-04T06:58:50.582Z,84.90
2018-09-04T07:01:20.463Z,82.90
2018-09-04T07:03:49.571Z,86.67
2018-09-04T07:06:26.692Z,90.33
2018-09-04T07:09:08.358Z,86.80
2018-09-04T07:11:48.967Z,91.37
2018-09-04T07:14:22.241Z,86.37
2018-09-04T07:16:52.779Z,85.60
2018-09-04T07:19:24.987Z,87.17
2018-09-04T07:21:56.020Z,82.70
2018-09-04T07:24:29.153Z,85.73
2018-09-04T07:27:04.495Z,91.10
2018-09-04T07:29:34.358Z,88.37
2018-09-04T07:32:03.257Z,96.03
2018-09-04T07:34:32.157Z,96.40
2018-09-04T07:37:01.056Z,99.83
2018-09-04T07:39:35.414Z,92.03
2018-09-04T07:42:07.736Z,83.43
2018-09-04T07:44:49.125Z,83.87
2018-09-04T07:47:18.216Z,89.17
2018-09-04T07:49:47.205Z,80.03
2018-09-04T07:52:16.378Z,110.83
2018-09-04T07:57:48.972Z,115.83
2018-09-04T08:00:17.814Z,118.83
2018-09-04T08:02:46.864Z,122.30
2018-09-04T08:05:15.779Z,117.13
2018-09-04T08:07:44.684Z,129.10
2018-09-04T08:10:19.815Z,116.57
2018-09-04T08:12:48.692Z,114.80
2018-09-04T08:15:17.626Z,118.37
2018-09-04T08:17:48.809Z,104.90
2018-09-04T08:20:27.722Z,103.80
2018-09-04T08:22:56.791Z,115.40
2018-09-04T08:25:26.501Z,112.87
2018-09-04T08:27:55.458Z,101.10
2018-09-04T08:30:24.732Z,116.47
2018-09-04T08:32:53.690Z,104.57
2018-09-04T08:35:27.515Z,102.67
2018-09-04T08:37:59.494Z,104.27
2018-09-04T08:40:29.534Z,112.67
2018-09-04T08:48:53.080Z,121.53
2018-09-04T08:51:22.039Z,131.37
2018-09-04T08:53:50.905Z,113.60
2018-09-04T08:56:19.972Z,126.27
2018-09-04T08:58:48.858Z,128.60
2018-09-04T09:01:17.748Z,122.63
2018-09-04T09:06:45.228Z,103.17
2018-09-04T09:09:14.136Z,128.73
2018-09-04T09:11:49.180Z,126.80
2018-09-04T09:14:18.107Z,118.03
2018-09-04T09:16:47.060Z,119.87
2018-09-04T09:19:26.319Z,135.20
2018-09-04T09:21:55.221Z,116.37
2018-09-04T09:24:24.123Z,106.80
2018-09-04T09:26:53.013Z,114.60
2018-09-04T09:29:21.910Z,116.33
2018-09-04T09:31:56.515Z,124.03
2018-09-04T09:34:25.427Z,110.03
2018-09-04T09:36:54.565Z,114.07
2018-09-04T09:39:23.789Z,124.33
2018-09-04T09:42:06.139Z,128.60
2018-09-04T09:44:35.140Z,126.40
2018-09-04T09:47:10.025Z,121.57
2018-09-04T09:49:42.251Z,116.93
2018-09-04T09:52:27.711Z,113.13
2018-09-04T09:55:01.434Z,128.27
2018-09-04T09:57:43.285Z,113.67
2018-09-04T10:00:31.117Z,115.37
2018-09-04T10:03:04.056Z,118.30
2018-09-04T10:08:33.201Z,131.30
2018-09-04T10:11:02.263Z,106.60
2018-09-04T10:13:49.324Z,118.93
2018-09-04T10:16:22.659Z,116.17
2018-09-04T10:19:02.099Z,110.10
2018-09-04T10:21:31.244Z,120.57
2018-09-04T10:24:04.054Z,109.17
2018-09-04T10:26:40.081Z,119.03
2018-09-04T10:29:14.789Z,112.80
2018-09-04T10:31:50.364Z,111.80
2018-09-04T10:34:19.257Z,117.37
2018-09-04T10:36:48.169Z,107.37
2018-09-04T10:39:28.002Z,112.03
2018-09-04T10:41:56.887Z,100.33
2018-09-04T10:44:28.207Z,100.43
2018-09-04T10:46:57.039Z,107.37
2018-09-04T10:49:25.957Z,99.30
2018-09-04T10:51:54.831Z,103.47
2018-09-04T10:54:23.715Z,102.77
2018-09-04T10:56:52.683Z,101.90
2018-09-04T10:59:21.587Z,89.23
2018-09-04T11:01:55.529Z,103.17
2018-09-04T11:04:28.251Z,101.73
2018-09-04T11:06:57.174Z,108.10
2018-09-04T11:09:26.227Z,101.17
2018-09-04T11:17:56.058Z,94.03
2018-09-04T11:20:24.968Z,88.70
2018-09-04T11:23:13.592Z,95.63
2018-09-04T11:25:45.856Z,90.17
2018-09-04T11:28:14.959Z,93.53
2018-09-04T11:30:43.854Z,91.97
2018-09-04T11:33:37.078Z,88.27
2018-09-04T11:36:15.965Z,80.40
2018-09-04T11:38:59.188Z,93.90
2018-09-04T11:41:28.213Z,88.57
2018-09-04T11:43:57.176Z,83.37
2018-09-04T11:46:44.710Z,83.57
2018-09-04T11:49:17.342Z,74.60
2018-09-04T11:52:04.946Z,82.40
2018-09-04T11:54:40.981Z,77.30
2018-09-04T11:57:14.345Z,80.00
2018-09-04T11:59:44.734Z,80.73
2018-09-04T12:02:44.881Z,74.60
2018-09-04T12:05:13.784Z,76.50
2018-09-04T12:07:42.821Z,71.93
2018-09-04T12:10:11.682Z,71.50
2018-09-04T12:13:00.439Z,73.17
2018-09-04T12:15:41.992Z,77.03
2018-09-04T12:18:17.218Z,68.60
2018-09-04T12:20:54.255Z,69.60
2018-09-04T12:23:27.906Z,74.37
2018-09-04T12:26:06.536Z,69.67
2018-09-04T12:28:38.628Z,74.70
2018-09-04T12:31:09.867Z,66.47
2018-09-04T12:33:44.120Z,65.80
2018-09-04T12:36:16.768Z,61.03
2018-09-04T12:39:06.435Z,56.53
2018-09-04T12:41:50.061Z,61.87
2018-09-04T12:44:23.074Z,62.33
2018-09-04T12:46:57.083Z,54.47
2018-09-04T12:49:26.056Z,57.03
2018-09-04T12:51:57.025Z,64.80
2018-09-04T12:54:25.961Z,59.10
2018-09-04T12:56:54.849Z,58.13
2018-09-04T12:59:23.698Z,57.77
2018-09-04T13:01:52.566Z,67.13
2018-09-04T13:04:22.465Z,57.40
2018-09-04T13:06:55.177Z,68.30
2018-09-04T13:09:24.058Z,56.90
2018-09-04T13:12:05.343Z,54.87
2018-09-04T13:17:27.289Z,47.20
2018-09-04T13:19:57.187Z,53.63
2018-09-04T13:22:39.111Z,58.20
2018-09-04T13:25:08.066Z,50.33
2018-09-04T13:27:47.890Z,47.63
2018-09-04T13:30:20.193Z,41.40
2018-09-04T13:33:01.985Z,41.70
2018-09-04T13:35:36.219Z,46.90
2018-09-04T13:38:09.411Z,46.00
2018-09-04T13:40:42.544Z,42.77
2018-09-04T13:43:11.527Z,44.40
2018-09-04T13:45:44.717Z,43.97
2018-09-04T13:48:13.675Z,44.90
2018-09-04T13:50:44.604Z,40.07
2018-09-04T13:56:06.877Z,47.07
2018-09-04T13:58:35.846Z,48.63
2018-09-04T14:01:10.404Z,53.77
2018-09-04T14:03:43.258Z,52.20
2018-09-04T14:06:16.167Z,59.37
2018-09-04T14:08:45.136Z,52.43
2018-09-04T14:11:14.096Z,57.13
2018-09-04T14:13:43.096Z,52.27
2018-09-04T14:16:17.741Z,62.53
2018-09-04T14:18:54.948Z,58.37
2018-09-04T14:21:33.858Z,55.83
2018-09-04T14:24:04.002Z,58.77
2018-09-04T14:26:33.000Z,64.33
2018-09-04T14:29:07.566Z,54.30
2018-09-04T14:31:33.820Z,55.00
2018-09-04T14:34:03.825Z,50.93
2018-09-04T14:36:33.115Z,50.67
2018-09-04T14:39:07.774Z,48.60
2018-09-04T14:41:41.135Z,47.27
2018-09-04T14:44:30.543Z,54.80
2018-09-04T14:47:01.458Z,41.73
2018-09-04T14:49:30.411Z,52.77
2018-09-04T14:51:59.360Z,46.10
2018-09-04T14:54:35.179Z,44.73
2018-09-04T14:57:04.176Z,53.43
2018-09-04T14:59:36.476Z,37.87
2018-09-04T15:02:05.376Z,40.63
2018-09-04T15:04:38.882Z,47.57
2018-09-04T15:07:19.363Z,39.83
2018-09-04T15:09:55.176Z,44.10
2018-09-04T15:12:34.089Z,46.10
2018-09-04T15:15:13.959Z,35.83
2018-09-04T15:17:56.370Z,38.13
2018-09-04T15:20:26.699Z,37.80
2018-09-04T15:22:56.664Z,37.10
2018-09-04T15:25:26.695Z,34.00
2018-09-04T15:27:57.613Z,41.10
2018-09-04T15:30:27.558Z,45.03
2018-09-04T15:32:56.496Z,51.63
2018-09-04T15:35:25.557Z,44.10
2018-09-04T15:37:54.558Z,47.67
2018-09-04T15:40:30.757Z,40.13
2018-09-04T15:42:59.928Z,35.67
2018-09-04T15:45:30.325Z,40.73
2018-09-04T15:48:00.752Z,50.47
2018-09-04T15:50:29.907Z,41.47
2018-09-04T15:52:58.856Z,47.97
2018-09-04T15:58:21.619Z,43.33
2018-09-04T16:00:52.578Z,37.07
2018-09-04T16:03:23.691Z,41.97
2018-09-04T16:05:53.648Z,38.50
2018-09-04T16:08:26.233Z,39.23
2018-09-04T16:10:55.488Z,24.97
2018-09-04T16:13:27.960Z,15.77
2018-09-04T16:16:02.816Z,19.23
2018-09-04T16:18:51.442Z,16.33
2018-09-04T16:21:22.417Z,15.47
2018-09-04T16:23:53.372Z,22.00
2018-09-04T16:26:41.984Z,22.63
2018-09-04T16:29:14.783Z,21.37
2018-09-04T16:31:51.042Z,21.77
2018-09-04T16:34:25.483Z,20.63
2018-09-04T16:36:56.349Z,19.87
2018-09-04T16:39:26.665Z,19.70
2018-09-04T16:41:58.890Z,20.77
2018-09-04T16:44:28.911Z,19.57
2018-09-04T16:47:00.971Z,20.30
2018-09-04T16:49:34.774Z,24.43
2018-09-04T16:52:03.685Z,22.73
2018-09-04T16:54:32.612Z,23.77
2018-09-04T16:57:01.587Z,19.47
2018-09-04T16:59:30.753Z,23.20
2018-09-04T17:02:03.409Z,17.57
2018-09-04T17:04:33.365Z,19.80
2018-09-04T17:07:06.936Z,17.73
2018-09-04T17:09:37.889Z,17.27
2018-09-04T17:12:06.815Z,17.47
2018-09-04T17:14:36.714Z,17.43
2018-09-04T17:17:06.719Z,16.70
2018-09-04T17:19:42.136Z,19.60
2018-09-04T17:22:13.452Z,20.00
2018-09-04T17:24:50.443Z,19.43
2018-09-04T17:27:20.409Z,19.27
2018-09-04T17:29:49.406Z,21.47
2018-09-04T17:32:23.633Z,19.40
2018-09-04T17:34:55.574Z,21.50
2018-09-04T17:37:25.517Z,21.10
2018-09-04T17:39:54.870Z,21.33
2018-09-04T17:42:27.062Z,23.30
2018-09-04T17:44:55.969Z,23.00
2018-09-04T17:47:27.929Z,22.00
2018-09-04T17:49:57.916Z,21.10
2018-09-04T17:52:27.836Z,22.30
2018-09-04T17:55:02.104Z,21.87
2018-09-04T17:57:32.184Z,20.50
2018-09-04T18:00:13.254Z,22.33
2018-09-04T18:02:42.207Z,19.97
2018-09-04T18:05:16.869Z,26.37
2018-09-04T18:07:49.327Z,25.67
2018-09-04T18:10:22.020Z,24.87
2018-09-04T18:12:54.035Z,25.50
2018-09-04T18:15:24.961Z,26.30
2018-09-04T18:17:53.992Z,27.73
2018-09-04T18:20:30.943Z,26.33
2018-09-04T18:23:01.874Z,28.40
2018-09-04T18:25:32.916Z,25.73
2018-09-04T18:28:01.968Z,23.13
2018-09-04T18:30:32.381Z,24.63
2018-09-04T18:33:05.628Z,28.67
2018-09-04T18:35:35.683Z,26.83
2018-09-04T18:38:04.864Z,27.83
2018-09-04T18:40:44.297Z,26.13
2018-09-04T18:43:13.465Z,24.37
2018-09-04T18:45:50.277Z,30.27
2018-09-04T18:48:23.473Z,26.27
2018-09-04T18:50:58.989Z,29.47
2018-09-04T18:53:27.961Z,25.07
2018-09-04T18:55:56.838Z,27.17
2018-09-04T18:58:36.528Z,25.90
2018-09-04T19:01:05.539Z,26.83
2018-09-04T19:03:44.029Z,27.80
2018-09-04T19:06:14.914Z,30.00
2018-09-04T19:08:45.025Z,28.67
2018-09-04T19:11:28.801Z,26.77
2018-09-04T19:13:59.826Z,30.70
2018-09-04T19:16:49.041Z,27.90
2018-09-04T19:22:25.345Z,29.40
2018-09-04T19:25:00.271Z,32.03
2018-09-04T19:27:29.673Z,28.83
2018-09-04T19:30:02.139Z,28.77
2018-09-04T19:32:35.786Z,26.60
2018-09-04T19:37:58.636Z,25.27
2018-09-04T19:40:38.738Z,28.60
2018-09-04T19:43:08.691Z,26.23
2018-09-04T19:46:00.575Z,27.97
2018-09-04T19:48:29.474Z,28.70
2018-09-04T19:51:12.088Z,27.27
2018-09-04T19:53:57.815Z,27.40
2018-09-04T19:59:26.078Z,29.50
2018-09-04T20:01:56.306Z,30.23
2018-09-04T20:04:26.523Z,31.73
2018-09-04T20:06:56.178Z,29.57
2018-09-04T20:09:27.281Z,29.20
2018-09-04T20:11:56.661Z,30.50
2018-09-04T20:17:18.831Z,34.03
2018-09-04T20:19:54.468Z,30.37
2018-09-04T20:22:29.150Z,32.57
2018-09-04T20:25:05.946Z,30.03
2018-09-04T20:27:47.345Z,28.37
2018-09-04T20:30:26.961Z,33.83
2018-09-04T20:32:55.902Z,29.90
2018-09-04T20:35:25.837Z,31.20
2018-09-04T20:37:59.759Z,28.23
2018-09-04T20:43:34.979Z,28.80
2018-09-04T20:46:09.642Z,31.30
2018-09-04T20:48:39.676Z,28.17
2018-09-04T20:51:08.624Z,33.80
2018-09-04T20:53:37.570Z,28.70
2018-09-04T20:56:06.885Z,30.13
2018-09-04T20:58:47.239Z,30.73
2018-09-04T21:01:30.613Z,31.70
2018-09-04T21:04:10.870Z,29.17
2018-09-04T21:06:45.982Z,30.00
2018-09-04T21:09:49.212Z,33.13
2018-09-04T21:12:20.190Z,29.20
2018-09-04T21:17:46.060Z,30.67
2018-09-04T21:20:15.049Z,31.17
2018-09-04T21:22:45.029Z,29.87
2018-09-04T21:28:23.378Z,31.27
2018-09-04T21:30:53.464Z,30.13
2018-09-04T21:33:22.720Z,32.93
2018-09-04T21:36:03.011Z,35.07
2018-09-04T21:38:32.024Z,29.30
2018-09-04T21:41:13.020Z,29.10
2018-09-04T21:43:42.096Z,32.50
2018-09-04T21:46:11.300Z,37.30
2018-09-04T21:48:41.619Z,35.33
2018-09-04T21:51:10.764Z,40.93
2018-09-04T21:53:47.124Z,38.20
2018-09-04T21:56:21.755Z,35.23
2018-09-04T21:58:50.849Z,36.80
2018-09-04T22:01:19.735Z,37.90
2018-09-04T22:03:49.874Z,34.63
2018-09-04T22:06:18.808Z,39.37
2018-09-04T22:08:58.644Z,34.80
2018-09-04T22:11:44.041Z,37.23
2018-09-04T22:14:12.966Z,37.20
2018-09-04T22:16:41.924Z,37.20
2018-09-04T22:19:10.822Z,35.63
2018-09-04T22:24:46.188Z,35.53
2018-09-04T22:27:25.198Z,33.13
2018-09-04T22:29:54.087Z,35.17
2018-09-04T22:32:23.193Z,28.90
2018-09-04T22:35:04.451Z,32.50
2018-09-04T22:37:35.391Z,33.23
2018-09-04T22:40:23.073Z,34.07
2018-09-04T22:42:51.982Z,30.50
2018-09-04T22:45:20.929Z,32.80
2018-09-04T22:47:49.887Z,30.20
2018-09-04T22:50:24.233Z,27.27
2018-09-04T22:52:53.177Z,30.07
2018-09-04T22:55:22.113Z,32.13
2018-09-04T22:57:53.151Z,28.73
2018-09-04T23:00:27.213Z,29.37
2018-09-04T23:02:58.209Z,30.27
2018-09-04T23:05:27.889Z,30.70
2018-09-04T23:07:56.793Z,29.27
2018-09-04T23:10:42.013Z,29.73
2018-09-04T23:13:23.517Z,29.97
2018-09-04T23:15:52.475Z,28.67
2018-09-04T23:18:21.419Z,31.93
2018-09-04T23:20:50.648Z,29.90
2018-09-04T23:23:19.577Z,27.37
2018-09-04T23:25:55.446Z,25.97
2018-09-04T23:28:24.373Z,27.67
2018-09-04T23:30:53.254Z,28.43
2018-09-04T23:33:22.184Z,29.90
2018-09-04T23:35:51.058Z,27.93
2018-09-04T23:38:23.389Z,27.67
2018-09-04T23:40:52.961Z,32.47
2018-09-04T23:43:21.924Z,30.13
2018-09-04T23:45:50.781Z,26.93
2018-09-04T23:48:25.881Z,27.13
2018-09-04T23:50:54.768Z,25.90
2018-09-04T23:53:23.671Z,27.27
2018-09-04T23:55:52.569Z,25.00
2018-09-04T23:58:27.064Z,29.53
